Time;durP1;ratioP1;P1;durP2;ratioP2;P2;SDS_P1;SDS_P2;PMS_P1;PMS_P2;Temp;Humidity;BMP_temperature;BMP_pressure;BME280_temperature;BME280_humidity;BME280_pressure;Samples;Min_cycle;Max_cycle;Signal;HPM_P1;HPM_P2
2022/12/30 00:02:24;;;;;;;15.98;2.83;;;;;;;3.82;100.00;101007.25;5068575;28;20484;-80
2022/12/30 00:04:49;;;;;;;13.13;3.17;;;;;;;3.77;100.00;101006.38;5072607;28;20056;-79
2022/12/30 00:07:14;;;;;;;15.55;3.20;;;;;;;3.90;100.00;101030.53;5059739;28;20055;-80
2022/12/30 00:09:40;;;;;;;11.77;2.88;;;;;;;3.89;100.00;101023.63;5052343;28;20021;-80
2022/12/30 00:33:06;;;;;;;17.02;3.53;;;;;;;3.88;100.00;101035.66;5054647;28;20086;-80
2022/12/30 00:34:29;;;;;;;15.40;3.30;;;;;;;3.80;100.00;101052.81;5068748;28;20090;-80
2022/12/30 00:36:56;;;;;;;20.23;3.50;;;;;;;3.72;100.00;101044.16;5051649;28;20021;-80
2022/12/30 00:39:22;;;;;;;13.63;2.83;;;;;;;3.64;100.00;101044.09;5051177;28;20032;-80
2022/12/30 00:44:31;;;;;;;12.40;3.20;;;;;;;3.51;100.00;101045.69;5067740;28;20105;-80
2022/12/30 00:46:58;;;;;;;16.15;4.15;;;;;;;3.47;100.00;101048.25;5071636;28;20040;-80
2022/12/30 00:57:35;;;;;;;13.13;3.13;;;;;;;3.36;100.00;101052.44;5064666;28;20367;-79
2022/12/30 01:00:01;;;;;;;15.75;3.63;;;;;;;3.32;100.00;101051.53;5050506;28;20041;-80
2022/12/30 01:02:27;;;;;;;17.90;3.97;;;;;;;3.30;100.00;101053.22;5064390;28;20039;-79
2022/12/30 01:04:53;;;;;;;17.58;3.25;;;;;;;3.26;100.00;101059.19;5070120;28;20044;-80
2022/12/30 01:07:18;;;;;;;13.50;3.22;;;;;;;3.18;100.00;101053.97;5067132;28;20013;-80
2022/12/30 01:09:44;;;;;;;13.07;3.60;;;;;;;3.17;100.00;101062.56;5052323;28;20027;-80
2022/12/30 01:12:09;;;;;;;14.82;3.55;;;;;;;3.18;100.00;101074.59;5053683;28;20083;-80
2022/12/30 01:14:40;;;;;;;13.18;3.35;;;;;;;3.18;100.00;101074.59;5060434;28;20057;-80
2022/12/30 01:17:08;;;;;;;12.27;3.35;;;;;;;3.14;100.00;101072.84;5066933;28;20468;-80
2022/12/30 01:19:33;;;;;;;22.13;3.40;;;;;;;3.09;100.00;101073.63;5067122;28;20060;-80
2022/12/30 01:21:59;;;;;;;23.42;3.55;;;;;;;3.12;100.00;101079.69;5051990;28;20465;-80
2022/12/30 01:24:24;;;;;;;13.10;3.30;;;;;;;3.08;100.00;101061.63;5055609;28;20039;-80
2022/12/30 01:26:49;;;;;;;13.43;3.53;;;;;;;3.05;100.00;101062.44;5070777;28;20093;-80
2022/12/30 01:29:30;;;;;;;18.88;3.55;;;;;;;2.98;100.00;101061.50;5053575;28;20029;-80
2022/12/30 01:31:57;;;;;;;14.85;3.60;;;;;;;2.97;100.00;101067.47;5056697;28;20100;-80
2022/12/30 01:34:23;;;;;;;16.75;3.58;;;;;;;2.99;100.00;101075.25;5059355;28;20075;-80
2022/12/30 01:36:49;;;;;;;15.55;3.60;;;;;;;2.95;100.00;101069.19;5056932;28;20028;-80
2022/12/30 01:39:14;;;;;;;16.58;3.20;;;;;;;3.02;100.00;101083.00;5065596;28;20035;-80
2022/12/30 01:41:39;;;;;;;21.77;3.97;;;;;;;3.03;100.00;101095.03;5053929;28;20059;-79
2022/12/30 01:44:42;;;;;;;26.35;3.83;;;;;;;3.02;100.00;101091.59;5062310;28;20067;-80
2022/12/30 01:47:11;;;;;;;15.73;3.63;;;;;;;3.03;100.00;101089.88;5065805;28;20041;-80
2022/12/30 01:49:40;;;;;;;22.33;3.85;;;;;;;3.01;100.00;101082.16;5063352;28;20074;-80
2022/12/30 01:52:06;;;;;;;22.35;4.20;;;;;;;3.10;100.00;101094.25;5067216;28;20350;-79
2022/12/30 01:54:33;;;;;;;27.50;3.78;;;;;;;3.16;100.00;101106.34;5054310;28;20036;-80
2022/12/30 01:57:14;;;;;;;16.35;3.45;;;;;;;2.78;100.00;101043.25;5101812;22;20107;-77
2022/12/30 01:59:55;;;;;;;13.68;3.00;;;;;;;3.03;100.00;101102.75;5045915;28;20033;-79
2022/12/30 02:02:24;;;;;;;15.60;3.40;;;;;;;2.70;100.00;101057.72;5050409;28;20029;-79
2022/12/30 02:04:50;;;;;;;12.52;3.08;;;;;;;2.76;100.00;101080.13;5051924;28;20511;-79
2022/12/30 02:07:47;;;;;;;16.70;4.32;;;;;;;2.72;100.00;101073.22;5039070;28;20112;-78
2022/12/30 02:10:22;;;;;;;19.52;3.28;;;;;;;2.89;100.00;101079.41;5053866;28;20028;-79
2022/12/30 02:13:09;;;;;;;11.32;2.70;;;;;;;3.10;100.00;101103.69;5042802;28;20040;-79
2022/12/30 02:16:22;;;;;;;14.85;3.50;;;;;;;2.86;100.00;101058.78;5041915;28;20048;-79
2022/12/30 02:19:15;;;;;;;17.75;3.33;;;;;;;3.24;100.00;101097.00;5054314;28;20491;-80
2022/12/30 02:21:56;;;;;;;24.35;3.13;;;;;;;3.30;100.00;101086.72;5055503;28;20051;-78
2022/12/30 02:24:46;;;;;;;26.60;3.20;;;;;;;3.30;100.00;101099.59;5040749;28;20024;-79
2022/12/30 02:27:52;;;;;;;15.15;3.28;;;;;;;3.28;100.00;101085.88;5054823;28;20128;-78
2022/12/30 02:30:39;;;;;;;20.83;3.88;;;;;;;3.23;100.00;101079.78;5054268;28;20032;-79
2022/12/30 02:33:28;;;;;;;21.75;2.97;;;;;;;3.19;100.00;101073.75;5041322;28;20044;-79
2022/12/30 02:36:22;;;;;;;15.98;3.40;;;;;;;3.18;100.00;101064.28;5055122;28;20033;-79
2022/12/30 02:39:30;;;;;;;14.68;3.10;;;;;;;3.02;100.00;101037.50;5054190;28;20035;-79
2022/12/30 02:48:57;;;;;;;19.13;3.22;;;;;;;2.86;100.00;101020.16;4973271;28;20411;-79
2022/12/30 02:54:09;;;;;;;11.23;2.90;;;;;;;2.63;100.00;100995.88;5042235;28;20462;-79
2022/12/30 02:57:27;;;;;;;18.75;3.15;;;;;;;2.96;100.00;101045.16;5054327;28;20029;-79
2022/12/30 03:04:04;;;;;;;16.42;3.30;;;;;;;2.85;100.00;101039.03;5053093;28;20438;-79
2022/12/30 03:06:50;;;;;;;18.20;3.45;;;;;;;2.86;100.00;101033.03;5062711;28;20468;-79
2022/12/30 03:09:40;;;;;;;13.00;2.85;;;;;;;2.88;100.00;101025.31;5040418;28;20024;-79
2022/12/30 03:12:24;;;;;;;19.77;4.18;;;;;;;2.82;100.00;101028.69;5062955;28;20033;-78
2022/12/30 03:14:50;;;;;;;18.02;2.92;;;;;;;2.89;100.00;101035.66;5053521;28;20107;-79
2022/12/30 03:17:20;;;;;;;17.63;3.60;;;;;;;2.88;100.00;101036.50;5053917;28;20029;-79
2022/12/30 03:19:51;;;;;;;14.95;2.92;;;;;;;2.88;100.00;101044.22;5053565;28;20028;-79
2022/12/30 03:27:52;;;;;;;17.48;3.22;;;;;;;2.81;100.00;101033.00;5053295;28;20028;-79
2022/12/30 03:30:17;;;;;;;18.02;2.97;;;;;;;2.79;100.00;101036.38;5053873;28;20033;-79
2022/12/30 03:32:43;;;;;;;22.27;3.53;;;;;;;2.75;100.00;101022.63;5053281;28;20021;-79
2022/12/30 03:35:08;;;;;;;20.73;3.95;;;;;;;2.65;100.00;101015.66;5058649;28;20057;-79
2022/12/30 03:37:40;;;;;;;14.98;3.60;;;;;;;2.62;100.00;101019.91;5054085;28;20040;-79
2022/12/30 03:40:21;;;;;;;14.70;4.07;;;;;;;2.59;100.00;101020.72;5053753;28;20040;-79
2022/12/30 03:42:51;;;;;;;18.35;4.18;;;;;;;2.57;100.00;101028.41;5041163;28;20030;-79
2022/12/30 03:45:17;;;;;;;20.08;3.20;;;;;;;2.48;100.00;101020.56;5062402;28;20029;-79
2022/12/30 03:47:43;;;;;;;23.15;4.18;;;;;;;2.48;100.00;101020.56;5053048;28;20025;-79
2022/12/30 03:50:09;;;;;;;23.95;4.30;;;;;;;2.44;100.00;101026.53;5053492;28;20590;-79
2022/12/30 03:52:34;;;;;;;20.70;4.03;;;;;;;2.42;100.00;101032.50;5080227;22;20056;-79
2022/12/30 03:54:59;;;;;;;17.27;3.95;;;;;;;2.39;100.00;101030.75;5074022;28;20046;-79
2022/12/30 03:57:25;;;;;;;19.48;4.47;;;;;;;2.34;100.00;101025.53;5092360;28;20042;-79
2022/12/30 03:59:50;;;;;;;15.90;3.67;;;;;;;2.36;100.00;101029.88;5093862;28;20044;-79
2022/12/30 04:02:38;;;;;;;23.88;3.75;;;;;;;1.93;100.00;100971.00;5129143;22;20470;-79
2022/12/30 04:05:21;;;;;;;21.48;4.10;;;;;;;1.97;100.00;100987.31;5073861;23;20048;-79
2022/12/30 04:07:47;;;;;;;21.40;3.70;;;;;;;1.93;100.00;100980.38;5071441;28;20052;-79
2022/12/30 04:10:25;;;;;;;17.13;3.15;;;;;;;2.06;100.00;101011.47;5072133;28;20031;-79
2022/12/30 04:12:50;;;;;;;15.63;3.13;;;;;;;2.04;100.00;101005.41;5073208;28;20020;-79
2022/12/30 04:15:16;;;;;;;23.98;4.10;;;;;;;2.11;100.00;101020.09;5071057;28;20098;-79
2022/12/30 04:17:56;;;;;;;16.55;3.40;;;;;;;1.93;100.00;101000.94;5071408;28;20090;-79
2022/12/30 04:20:36;;;;;;;17.48;3.40;;;;;;;2.06;100.00;101019.19;5072375;28;20025;-79
2022/12/30 04:23:04;;;;;;;16.90;3.30;;;;;;;2.29;100.00;101060.66;5071729;28;20031;-79
2022/12/30 04:25:38;;;;;;;22.02;3.70;;;;;;;2.03;100.00;101023.41;5072262;28;20024;-79
2022/12/30 04:28:10;;;;;;;24.80;3.90;;;;;;;1.83;100.00;100995.69;5060214;28;20032;-79
2022/12/30 04:30:35;;;;;;;18.65;3.65;;;;;;;1.95;100.00;101010.41;5071054;28;20430;-79
2022/12/30 04:33:07;;;;;;;15.60;3.35;;;;;;;2.05;100.00;101032.84;5070985;28;20028;-79
2022/12/30 04:35:44;;;;;;;15.75;3.20;;;;;;;1.85;100.00;101004.28;5072654;28;20085;-80
2022/12/30 04:38:24;;;;;;;21.35;3.28;;;;;;;1.74;100.00;100987.84;5070705;28;20055;-79
2022/12/30 04:41:08;;;;;;;17.30;3.22;;;;;;;1.76;100.00;101000.72;5067207;28;20063;-79
2022/12/30 04:43:33;;;;;;;22.30;3.80;;;;;;;1.96;100.00;101027.59;5080900;28;20035;-79
2022/12/30 04:45:58;;;;;;;18.48;3.85;;;;;;;1.73;100.00;100998.94;5091489;28;20016;-79
2022/12/30 04:48:24;;;;;;;21.25;3.70;;;;;;;1.92;100.00;101032.66;5072428;28;20070;-79
2022/12/30 04:50:49;;;;;;;13.65;3.38;;;;;;;1.94;100.00;101031.84;5072736;28;20527;-79
2022/12/30 04:53:14;;;;;;;16.38;4.10;;;;;;;1.99;100.00;101040.47;5074266;28;20035;-79
2022/12/30 04:55:40;;;;;;;20.42;4.38;;;;;;;2.04;100.00;101044.00;5077155;28;20056;-79
2022/12/30 04:58:05;;;;;;;21.00;4.25;;;;;;;2.06;100.00;101046.56;5071629;28;20048;-79
2022/12/30 05:00:32;;;;;;;23.02;4.18;;;;;;;2.06;100.00;101036.28;5071356;28;20430;-79
2022/12/30 05:02:57;;;;;;;20.88;4.65;;;;;;;2.09;100.00;101041.47;5072793;28;20107;-79
2022/12/30 05:05:23;;;;;;;21.10;4.82;;;;;;;2.05;100.00;101024.28;5068794;28;20465;-79
2022/12/30 05:07:49;;;;;;;17.77;4.38;;;;;;;1.98;100.00;101012.19;5072179;28;20032;-79
2022/12/30 05:10:15;;;;;;;19.45;4.60;;;;;;;2.01;100.00;101009.66;5072179;28;20017;-79
2022/12/30 05:12:40;;;;;;;16.73;3.90;;;;;;;2.17;100.00;101027.03;5071566;28;20365;-79
2022/12/30 05:15:06;;;;;;;18.67;3.65;;;;;;;2.10;100.00;101012.38;5071564;28;20032;-79
2022/12/30 05:17:31;;;;;;;22.83;4.47;;;;;;;2.06;100.00;101005.44;5071884;28;20024;-79
2022/12/30 05:19:56;;;;;;;13.18;3.53;;;;;;;2.18;100.00;101015.03;5071366;28;20032;-79
2022/12/30 05:22:21;;;;;;;18.75;4.85;;;;;;;2.14;100.00;101005.56;5071982;28;20019;-79
2022/12/30 05:27:31;;;;;;;;;;;;;;;2.24;100.00;101012.53;5071214;28;20170;-79
2022/12/30 05:29:56;;;;;;;17.13;4.03;;;;;;;2.19;100.00;101006.47;5071996;28;19958;-79
2022/12/30 05:32:22;;;;;;;19.27;3.53;;;;;;;2.22;100.00;101002.22;5071503;28;20032;-79
2022/12/30 05:34:47;;;;;;;22.63;3.72;;;;;;;2.27;100.00;101018.59;5070700;28;20166;-79
2022/12/30 05:37:12;;;;;;;19.50;3.58;;;;;;;2.29;100.00;101008.34;5073752;28;20024;-79
2022/12/30 05:39:37;;;;;;;20.05;3.88;;;;;;;2.36;100.00;101017.84;5076421;28;20028;-79
2022/12/30 05:42:11;;;;;;;24.17;4.50;;;;;;;2.34;100.00;101006.66;5087808;28;20099;-79
2022/12/30 05:44:36;;;;;;;21.25;3.88;;;;;;;2.37;100.00;101009.28;5062553;28;20029;-79
2022/12/30 05:47:03;;;;;;;26.52;3.65;;;;;;;2.42;100.00;101012.78;5074976;28;20020;-79
2022/12/30 05:49:29;;;;;;;20.98;3.90;;;;;;;2.34;100.00;100999.81;5078840;28;20031;-79
2022/12/30 05:51:54;;;;;;;21.08;3.90;;;;;;;2.38;100.00;101005.84;5085880;28;20107;-79
2022/12/30 05:54:19;;;;;;;19.45;4.18;;;;;;;2.48;100.00;101010.25;5075445;28;20126;-79
2022/12/30 05:56:44;;;;;;;21.92;4.13;;;;;;;2.40;100.00;100993.88;5075876;28;20372;-79
2022/12/30 05:59:10;;;;;;;24.48;4.65;;;;;;;2.48;100.00;100989.69;5072881;28;20035;-78
2022/12/30 06:01:36;;;;;;;21.52;4.10;;;;;;;2.53;100.00;101008.63;5081218;28;20063;-79
2022/12/30 06:04:02;;;;;;;28.02;4.57;;;;;;;2.60;100.00;101012.13;5082944;28;20116;-80
2022/12/30 06:06:27;;;;;;;26.17;4.72;;;;;;;2.55;100.00;100999.22;5075294;28;20123;-79
2022/12/30 06:08:52;;;;;;;24.73;4.72;;;;;;;2.63;100.00;100999.31;5075317;28;20027;-79
2022/12/30 06:11:18;;;;;;;21.60;4.78;;;;;;;2.69;100.00;101001.94;5086544;28;20027;-79
2022/12/30 06:13:43;;;;;;;21.83;4.68;;;;;;;2.67;100.00;100998.47;5091538;28;20029;-79
2022/12/30 06:16:09;;;;;;;22.80;4.68;;;;;;;2.61;100.00;100988.13;5073844;28;20016;-78
2022/12/30 06:18:34;;;;;;;21.17;4.55;;;;;;;2.67;100.00;100995.06;5075610;28;20033;-79
2022/12/30 06:20:59;;;;;;;24.90;5.00;;;;;;;2.69;100.00;100991.66;5075232;28;20154;-79
2022/12/30 06:23:25;;;;;;;16.80;4.32;;;;;;;2.68;100.00;100968.44;5074622;28;20479;-79
2022/12/30 06:25:59;;;;;;;15.32;4.28;;;;;;;2.74;100.00;100973.66;5075298;28;20112;-79
2022/12/30 06:28:27;;;;;;;18.85;4.18;;;;;;;2.75;100.00;100970.28;5073720;28;20020;-79
2022/12/30 06:30:52;;;;;;;15.15;4.15;;;;;;;2.76;100.00;100977.13;5072588;28;20025;-79
2022/12/30 06:33:19;;;;;;;20.60;4.80;;;;;;;2.74;100.00;100978.81;5074918;28;20349;-79
2022/12/30 06:35:46;;;;;;;17.40;4.53;;;;;;;2.71;100.00;100974.50;5074026;28;20025;-79
2022/12/30 06:38:12;;;;;;;17.48;3.80;;;;;;;2.67;100.00;100957.28;5074062;28;20502;-79
2022/12/30 06:40:37;;;;;;;17.25;4.53;;;;;;;2.76;100.00;100965.13;5075843;28;20032;-79
2022/12/30 06:43:02;;;;;;;14.70;4.68;;;;;;;2.77;100.00;100959.13;5095144;28;20059;-79
2022/12/30 06:45:28;;;;;;;25.17;4.45;;;;;;;2.77;100.00;100945.38;5079820;28;20082;-79
2022/12/30 06:47:53;;;;;;;23.00;4.80;;;;;;;2.81;100.00;100949.72;5088031;28;20391;-78
2022/12/30 06:50:19;;;;;;;16.40;4.22;;;;;;;2.81;100.00;100950.59;5072754;28;20040;-79
2022/12/30 06:52:44;;;;;;;18.33;4.28;;;;;;;2.80;100.00;100938.56;5073927;28;20029;-79
2022/12/30 06:55:09;;;;;;;19.42;4.55;;;;;;;2.73;100.00;100929.03;5074388;28;20043;-79
2022/12/30 06:57:35;;;;;;;23.58;4.72;;;;;;;2.74;100.00;100919.59;5055669;28;20025;-79
2022/12/30 07:00:01;;;;;;;19.80;5.15;;;;;;;2.68;100.00;100912.72;5074524;28;20051;-79
2022/12/30 07:02:27;;;;;;;27.38;4.70;;;;;;;2.68;100.00;100905.00;5073587;28;20043;-79
2022/12/30 07:04:52;;;;;;;32.70;4.90;;;;;;;2.67;100.00;100905.81;5071044;28;20080;-79
2022/12/30 07:07:17;;;;;;;14.85;4.40;;;;;;;2.66;100.00;100903.25;5074195;28;20050;-78
2022/12/30 07:09:43;;;;;;;15.35;4.53;;;;;;;2.64;100.00;100889.47;5074768;28;20442;-79
2022/12/30 07:12:08;;;;;;;16.73;4.78;;;;;;;2.74;100.00;100893.88;5076234;28;20073;-79
2022/12/30 07:14:33;;;;;;;15.48;4.25;;;;;;;2.76;100.00;100890.47;5078911;28;20481;-79
2022/12/30 07:16:59;;;;;;;13.60;4.90;;;;;;;2.74;100.00;100886.13;5071477;28;20024;-79
2022/12/30 07:19:25;;;;;;;19.45;5.22;;;;;;;2.79;100.00;100892.22;5093676;28;20034;-79
2022/12/30 07:21:50;;;;;;;17.35;5.47;;;;;;;2.84;100.00;100893.09;5078608;28;20592;-79
2022/12/30 07:24:16;;;;;;;23.38;5.00;;;;;;;2.86;100.00;100895.69;5073624;28;20549;-79
2022/12/30 07:26:41;;;;;;;21.48;4.57;;;;;;;2.71;100.00;100855.22;5072129;28;20423;-79
2022/12/30 07:29:06;;;;;;;16.52;4.63;;;;;;;2.95;100.00;100880.34;5072736;28;20020;-79
2022/12/30 07:31:32;;;;;;;17.45;4.53;;;;;;;2.96;100.00;100880.34;5071889;28;20066;-78
2022/12/30 07:33:57;;;;;;;17.73;5.30;;;;;;;3.05;100.00;100879.56;5073085;28;20032;-79
2022/12/30 07:36:22;;;;;;;14.50;5.35;;;;;;;3.05;100.00;100852.06;5073636;28;20074;-78
2022/12/30 07:38:48;;;;;;;16.17;4.80;;;;;;;3.13;100.00;100856.41;5073839;28;20476;-79
2022/12/30 07:41:13;;;;;;;13.68;4.22;;;;;;;3.10;100.00;100856.41;5071187;28;20082;-79
2022/12/30 07:43:38;;;;;;;20.17;5.05;;;;;;;3.15;100.00;100849.56;5073398;28;20074;-79
2022/12/30 07:46:06;;;;;;;18.55;4.85;;;;;;;3.26;100.00;100835.03;5073054;28;20024;-79
2022/12/30 07:48:31;;;;;;;8.10;3.70;;;;;;;3.35;100.00;100845.41;5072749;28;20023;-78
2022/12/30 07:50:56;;;;;;;17.80;3.92;;;;;;;3.34;100.00;100833.38;5071962;28;20016;-78
2022/12/30 07:53:22;;;;;;;12.65;3.75;;;;;;;3.43;100.00;100833.44;5073085;28;20033;-78
2022/12/30 07:55:47;;;;;;;15.38;3.50;;;;;;;3.38;100.00;100819.66;5071634;28;20051;-79
2022/12/30 07:58:12;;;;;;;14.98;3.60;;;;;;;3.45;100.00;100823.97;5067517;28;20090;-79
2022/12/30 08:00:37;;;;;;;14.95;4.30;;;;;;;3.44;100.00;100809.38;5072074;28;20039;-78
2022/12/30 08:03:03;;;;;;;16.05;3.63;;;;;;;3.43;100.00;100799.06;5072126;28;20032;-78
2022/12/30 08:05:28;;;;;;;12.85;4.07;;;;;;;3.54;100.00;100809.44;5072114;28;20040;-78
2022/12/30 08:07:53;;;;;;;11.95;3.65;;;;;;;3.56;100.00;100802.56;5071772;28;20115;-78
2022/12/30 08:10:20;;;;;;;14.35;3.88;;;;;;;3.63;100.00;100796.56;5072652;28;20074;-79
2022/12/30 08:12:46;;;;;;;13.95;3.65;;;;;;;3.66;100.00;100796.56;5070886;28;20021;-79
2022/12/30 08:15:12;;;;;;;11.63;3.90;;;;;;;3.71;100.00;100803.47;5067813;28;20032;-80
2022/12/30 08:17:38;;;;;;;11.48;3.78;;;;;;;3.72;100.00;100775.97;5053752;28;20025;-80
2022/12/30 08:20:06;;;;;;;13.65;3.95;;;;;;;3.85;100.00;100780.31;5062097;28;20056;-80
2022/12/30 08:22:31;;;;;;;12.45;3.72;;;;;;;3.85;100.00;100774.31;5072038;28;20028;-79
2022/12/30 08:24:56;;;;;;;13.57;3.67;;;;;;;3.86;100.00;100776.91;5072794;28;20380;-80
2022/12/30 08:27:22;;;;;;;15.65;4.10;;;;;;;4.03;100.00;100788.97;5071013;28;20055;-80
2022/12/30 08:29:49;;;;;;;11.70;3.53;;;;;;;4.02;100.00;100776.91;5072909;28;20036;-79
2022/12/30 08:32:15;;;;;;;8.68;3.60;;;;;;;4.06;100.00;100771.78;5072295;28;20032;-79
2022/12/30 08:34:40;;;;;;;13.57;4.15;;;;;;;4.16;100.00;100776.09;5079049;28;20493;-80
2022/12/30 08:37:05;;;;;;;8.27;3.10;;;;;;;4.16;100.00;100760.63;5077701;28;20025;-80
2022/12/30 08:39:31;;;;;;;10.07;3.25;;;;;;;4.18;100.00;100758.88;5072656;28;20016;-80
2022/12/30 08:41:56;;;;;;;13.18;4.68;;;;;;;4.25;100.00;100771.81;5072912;28;20036;-79
2022/12/30 08:44:22;;;;;;;10.43;3.70;;;;;;;4.25;100.00;100758.91;5069234;28;20028;-80
2022/12/30 08:46:47;;;;;;;9.35;3.35;;;;;;;4.32;100.00;100753.75;5070906;28;20037;-80
2022/12/30 08:49:13;;;;;;;11.02;3.83;;;;;;;4.38;100.00;100748.63;5070953;28;20025;-80
2022/12/30 08:51:39;;;;;;;13.85;3.83;;;;;;;4.43;100.00;100739.13;5071512;28;20024;-80
2022/12/30 08:54:04;;;;;;;8.38;2.95;;;;;;;4.44;100.00;100732.25;5071298;28;20063;-80
2022/12/30 08:56:33;;;;;;;10.50;3.40;;;;;;;4.51;100.00;100735.69;5079596;28;20048;-79
2022/12/30 08:58:59;;;;;;;8.48;3.03;;;;;;;4.58;100.00;100737.44;5085429;28;20029;-78
2022/12/30 09:01:27;;;;;;;9.65;3.15;;;;;;;4.63;100.00;100730.50;5063265;28;20501;-79
2022/12/30 09:03:54;;;;;;;7.97;3.40;;;;;;;4.69;100.00;100731.38;5068920;28;20028;-79
2022/12/30 09:06:22;;;;;;;10.65;2.95;;;;;;;4.77;100.00;100717.56;5084233;28;20139;-79
2022/12/30 09:08:49;;;;;;;8.48;3.00;;;;;;;4.84;100.00;100709.84;5092328;28;20081;-79
2022/12/30 09:11:26;;;;;;;9.60;2.72;;;;;;;4.85;100.00;100711.53;5072558;28;20115;-79
2022/12/30 09:13:52;;;;;;;10.98;3.40;;;;;;;4.89;100.00;100697.75;5070295;28;20081;-79
2022/12/30 09:16:21;;;;;;;8.35;2.40;;;;;;;4.95;100.00;100685.69;5071870;28;20052;-79
2022/12/30 09:18:46;;;;;;;11.98;2.63;;;;;;;5.03;100.00;100692.53;5070587;28;20579;-79
2022/12/30 09:21:12;;;;;;;5.72;2.33;;;;;;;5.06;100.00;100689.09;5070836;28;20044;-79
2022/12/30 09:23:37;;;;;;;6.22;2.45;;;;;;;5.07;100.00;100699.44;5071685;28;20456;-79
2022/12/30 09:26:04;;;;;;;10.10;3.05;;;;;;;5.11;100.00;100688.22;5066351;28;20090;-79
2022/12/30 09:28:30;;;;;;;6.68;2.28;;;;;;;5.18;100.00;100686.47;5069887;28;20384;-79
2022/12/30 09:30:55;;;;;;;10.15;2.60;;;;;;;5.27;100.00;100690.75;5076306;28;20024;-79
2022/12/30 09:33:20;;;;;;;10.60;2.20;;;;;;;5.28;100.00;100680.41;5067500;28;20021;-79
2022/12/30 09:35:46;;;;;;;4.25;1.70;;;;;;;5.34;100.00;100682.09;5071514;28;20403;-80
2022/12/30 09:38:11;;;;;;;6.38;2.20;;;;;;;5.41;100.00;100676.03;5071400;28;20430;-80
2022/12/30 09:40:54;;;;;;;6.22;2.17;;;;;;;5.46;100.00;100678.59;5070856;28;20035;-79
2022/12/30 09:43:41;;;;;;;7.10;2.15;;;;;;;5.49;100.00;100669.06;5071365;28;20044;-79
2022/12/30 09:46:31;;;;;;;7.00;2.10;;;;;;;5.57;100.00;100671.66;5071592;28;20449;-80
2022/12/30 09:49:05;;;;;;;8.50;2.10;;;;;;;5.58;100.00;100650.94;5068960;28;20529;-79
2022/12/30 09:51:40;;;;;;;5.97;1.98;;;;;;;5.58;100.00;100644.91;5067803;28;20041;-80
2022/12/30 09:54:24;;;;;;;10.70;2.03;;;;;;;5.67;100.00;100652.63;5065393;28;20070;-80
2022/12/30 09:56:57;;;;;;;7.63;2.00;;;;;;;5.70;100.00;100650.00;5068448;28;20028;-80
2022/12/30 09:59:32;;;;;;;7.65;1.88;;;;;;;5.75;100.00;100634.44;5072279;28;20540;-80
2022/12/30 10:02:15;;;;;;;8.68;2.13;;;;;;;5.80;100.00;100633.56;5070248;28;20025;-79
2022/12/30 10:04:41;;;;;;;7.72;1.90;;;;;;;5.84;100.00;100626.63;5071182;28;20110;-79
2022/12/30 10:07:20;;;;;;;10.10;1.92;;;;;;;5.89;100.00;100621.44;5071451;28;20033;-79
2022/12/30 10:10:27;;;;;;;5.63;1.67;;;;;;;5.96;100.00;100615.38;5069150;28;20056;-80
2022/12/30 10:13:13;;;;;;;4.10;1.92;;;;;;;6.00;100.00;100609.28;5070893;28;20476;-80
2022/12/30 10:15:43;;;;;;;3.65;1.63;;;;;;;6.04;100.00;100611.81;5071156;28;20051;-80
2022/12/30 10:18:55;;;;;;;8.27;1.70;;;;;;;6.00;100.00;100578.22;5070246;28;20043;-79
2022/12/30 10:21:20;;;;;;;9.15;1.77;;;;;;;6.05;100.00;100577.31;5060734;28;20024;-80
2022/12/30 10:24:19;;;;;;;4.80;1.58;;;;;;;6.06;100.00;100562.66;5069829;28;20046;-80
2022/12/30 10:26:49;;;;;;;9.82;2.10;;;;;;;6.11;100.00;100555.69;5075060;28;20024;-81
2022/12/30 10:29:30;;;;;;;10.13;2.08;;;;;;;6.11;100.00;100540.16;5071190;28;20038;-84
2022/12/30 10:31:57;;;;;;;6.70;1.77;;;;;;;6.14;100.00;100552.22;5068851;28;20119;-80
2022/12/30 10:34:29;;;;;;;6.03;1.58;;;;;;;6.19;100.00;100543.53;5073562;28;20028;-77
2022/12/30 10:37:13;;;;;;;8.07;1.60;;;;;;;6.24;100.00;100531.38;5073143;28;20032;-79
2022/12/30 10:39:45;;;;;;;10.63;2.20;;;;;;;6.24;100.00;100527.94;5073968;28;20151;-78
2022/12/30 10:42:21;;;;;;;6.72;1.80;;;;;;;6.30;100.00;100520.13;5091324;28;20031;-85
2022/12/30 10:45:23;;;;;;;8.10;1.52;;;;;;;6.35;100.00;100520.94;5073881;28;20024;-81
2022/12/30 10:48:25;;;;;;;9.63;1.98;;;;;;;6.39;100.00;100501.03;5068850;28;20071;-81
2022/12/30 10:50:52;;;;;;;9.35;1.92;;;;;;;6.40;100.00;100484.63;5069966;28;20029;-82
2022/12/30 10:53:21;;;;;;;7.43;1.88;;;;;;;6.44;100.00;100474.22;5071213;28;20503;-82
2022/12/30 10:55:53;;;;;;;7.75;2.00;;;;;;;6.46;100.00;100469.00;5071051;28;20028;-82
2022/12/30 10:58:39;;;;;;;8.52;2.00;;;;;;;6.49;100.00;100466.41;5076991;28;20024;-83
2022/12/30 11:01:04;;;;;;;7.28;1.80;;;;;;;6.52;100.00;100443.03;5068569;28;20028;-82
2022/12/30 11:03:30;;;;;;;6.82;1.63;;;;;;;6.56;100.00;100445.56;5070920;28;20025;-82
2022/12/30 11:05:56;;;;;;;6.72;1.73;;;;;;;6.56;100.00;100436.94;5068146;28;20080;-81
2022/12/30 11:08:26;;;;;;;8.20;1.80;;;;;;;6.56;100.00;100421.41;5070870;28;20531;-81
2022/12/30 11:11:03;;;;;;;5.65;1.65;;;;;;;6.60;100.00;100427.38;5073457;28;20069;-81
2022/12/30 11:16:13;;;;;;;;;;;;;;;6.59;100.00;100412.75;5073984;28;20040;-81
2022/12/30 11:18:44;;;;;;;6.45;1.60;;;;;;;6.58;100.00;100401.53;5071061;28;20006;-81
2022/12/30 11:21:10;;;;;;;7.10;2.10;;;;;;;6.55;100.00;100392.06;5076308;28;20024;-81
2022/12/30 11:23:40;;;;;;;9.23;2.03;;;;;;;6.59;100.00;100389.44;5073322;28;20037;-81
2022/12/30 11:26:33;;;;;;;7.97;1.83;;;;;;;6.31;100.00;100323.38;5138485;22;20116;-82
2022/12/30 11:29:16;;;;;;;8.52;2.13;;;;;;;6.61;100.00;100359.19;5109304;28;20123;-81
2022/12/30 11:31:47;;;;;;;6.75;1.63;;;;;;;6.64;100.00;100352.22;5113102;28;20398;-81
2022/12/30 11:34:36;;;;;;;6.82;1.65;;;;;;;6.72;100.00;100337.41;5111768;28;20027;-82
2022/12/30 11:37:25;;;;;;;14.30;1.80;;;;;;;6.75;100.00;100327.00;5107238;28;20106;-80
2022/12/30 11:39:50;;;;;;;12.13;1.88;;;;;;;6.78;100.00;100316.59;5111307;28;20115;-82
2022/12/30 11:42:29;;;;;;;7.78;1.73;;;;;;;6.85;100.00;100306.13;5110694;28;20094;-81
2022/12/30 11:45:18;;;;;;;8.30;1.60;;;;;;;6.94;100.00;100299.06;5109083;28;20031;-82
2022/12/30 11:47:48;;;;;;;11.23;2.38;;;;;;;7.00;100.00;100292.91;5113436;28;20019;-81
2022/12/30 11:50:16;;;;;;;6.90;1.90;;;;;;;7.03;100.00;100285.09;5113800;28;20050;-82
2022/12/30 11:52:51;;;;;;;10.95;1.90;;;;;;;7.05;100.00;100265.16;5114137;28;20108;-82
2022/12/30 11:55:23;;;;;;;7.25;1.70;;;;;;;7.13;100.00;100267.59;5113182;28;20058;-82
2022/12/30 11:57:50;;;;;;;8.15;1.90;;;;;;;7.10;100.00;100242.63;5113820;28;20436;-82
2022/12/30 12:00:15;;;;;;;8.55;2.05;;;;;;;7.17;100.00;100241.63;5113062;28;20072;-82
2022/12/30 12:02:48;;;;;;;8.50;1.70;;;;;;;7.14;100.00;100233.91;5114305;28;20031;-82
2022/12/30 12:05:42;;;;;;;7.63;1.52;;;;;;;7.18;100.00;100234.69;5113702;28;20021;-82
2022/12/30 12:08:32;;;;;;;7.60;2.07;;;;;;;7.28;100.00;100224.09;5113307;28;20023;-81
2022/12/30 12:11:00;;;;;;;14.85;2.00;;;;;;;7.31;100.00;100212.81;5113109;28;20028;-82
2022/12/30 12:13:35;;;;;;;8.15;1.73;;;;;;;7.39;100.00;100215.25;5113538;28;20378;-82
2022/12/30 12:16:03;;;;;;;8.13;2.05;;;;;;;7.35;100.00;100208.41;5112880;28;20498;-82
2022/12/30 12:18:47;;;;;;;12.75;1.63;;;;;;;7.35;100.00;100209.28;5112726;28;20042;-82
2022/12/30 12:21:12;;;;;;;5.72;2.10;;;;;;;7.30;100.00;100197.31;5102358;28;20016;-82
2022/12/30 12:23:53;;;;;;;10.25;2.03;;;;;;;7.23;100.00;100181.88;5111989;28;20032;-81
2022/12/30 12:26:23;;;;;;;5.38;2.13;;;;;;;7.15;100.00;100191.53;5083528;28;20040;-82
2022/12/30 12:28:52;;;;;;;7.05;1.60;;;;;;;7.02;100.00;100171.91;5091446;28;20550;-81
2022/12/30 12:31:46;;;;;;;7.68;1.73;;;;;;;6.92;100.00;100167.81;5092609;28;20020;-82
2022/12/30 12:34:40;;;;;;;6.20;2.10;;;;;;;6.77;100.00;100164.63;5090429;28;20035;-81